createdAt,value
2023-05-19T00:01:17.537Z,9.80
2023-05-19T00:03:58.963Z,9.80
2023-05-19T00:06:29.305Z,9.90
2023-05-19T00:09:02.921Z,9.80
2023-05-19T00:11:30.505Z,9.50
2023-05-19T00:13:59.215Z,9.60
2023-05-19T00:16:28.002Z,9.50
2023-05-19T00:18:54.953Z,9.70
2023-05-19T00:21:21.763Z,9.60
2023-05-19T00:23:48.648Z,9.60
2023-05-19T00:26:15.633Z,9.40
2023-05-19T00:28:42.366Z,9.30
2023-05-19T00:31:09.126Z,9.20
2023-05-19T00:33:35.909Z,9.30
2023-05-19T00:36:03.681Z,9.30
2023-05-19T00:38:35.351Z,9.30
2023-05-19T00:41:03.536Z,9.10
2023-05-19T00:43:30.428Z,9.30
2023-05-19T00:45:58.139Z,9.20
2023-05-19T00:48:27.708Z,9.10
2023-05-19T00:51:02.153Z,9.00
2023-05-19T00:53:29.587Z,9.30
2023-05-19T00:55:56.759Z,9.10
2023-05-19T00:58:25.644Z,9.10
2023-05-19T01:00:52.889Z,9.00
2023-05-19T01:03:20.517Z,9.10
2023-05-19T01:05:53.652Z,9.10
2023-05-19T01:08:20.719Z,8.90
2023-05-19T01:10:47.557Z,9.30
2023-05-19T01:13:14.891Z,8.90
2023-05-19T01:16:02.760Z,9.00
2023-05-19T01:18:42.698Z,9.10
2023-05-19T01:21:48.776Z,8.80
2023-05-19T01:24:27.954Z,8.80
2023-05-19T01:27:06.836Z,9.00
2023-05-19T01:29:58.683Z,8.80
2023-05-19T01:32:26.086Z,8.90
2023-05-19T01:34:54.988Z,8.80
2023-05-19T01:37:22.701Z,8.70
2023-05-19T01:39:51.472Z,8.80
2023-05-19T01:42:19.256Z,8.70
2023-05-19T01:44:46.793Z,8.80
2023-05-19T01:47:14.988Z,9.00
2023-05-19T01:49:41.747Z,8.80
2023-05-19T01:52:08.421Z,8.90
2023-05-19T01:54:35.249Z,8.50
2023-05-19T01:57:32.339Z,8.80
2023-05-19T02:00:20.554Z,8.70
2023-05-19T02:03:09.816Z,8.70
2023-05-19T02:06:13.843Z,8.60
2023-05-19T02:08:48.359Z,8.60
2023-05-19T02:11:38.089Z,8.60
2023-05-19T02:14:14.803Z,8.50
2023-05-19T02:16:46.407Z,8.50
2023-05-19T02:19:29.436Z,8.50
2023-05-19T02:21:56.476Z,8.40
2023-05-19T02:24:23.200Z,8.40
2023-05-19T02:26:51.874Z,8.20
2023-05-19T02:29:19.691Z,8.30
2023-05-19T02:31:46.755Z,8.50
2023-05-19T02:34:13.882Z,8.40
2023-05-19T02:36:45.345Z,8.40
2023-05-19T02:39:12.593Z,8.30
2023-05-19T02:41:39.563Z,8.50
2023-05-19T02:44:06.443Z,8.40
2023-05-19T02:46:33.730Z,8.30
2023-05-19T02:49:00.454Z,8.30
2023-05-19T02:51:27.184Z,8.50
2023-05-19T02:53:54.016Z,8.60
2023-05-19T02:56:21.695Z,8.40
2023-05-19T02:58:48.543Z,8.40
2023-05-19T03:01:16.472Z,8.30
2023-05-19T03:03:43.381Z,8.30
2023-05-19T03:06:10.089Z,8.30
2023-05-19T03:08:36.854Z,8.20
2023-05-19T03:11:03.953Z,8.20
2023-05-19T03:13:30.740Z,8.30
2023-05-19T03:15:59.176Z,8.20
2023-05-19T03:18:29.010Z,8.30
2023-05-19T03:20:56.361Z,8.20
2023-05-19T03:23:23.085Z,8.10
2023-05-19T03:25:49.894Z,8.30
2023-05-19T03:28:17.236Z,8.10
2023-05-19T03:30:45.484Z,7.90
2023-05-19T03:33:12.608Z,8.00
2023-05-19T03:35:39.483Z,8.00
2023-05-19T03:38:06.342Z,7.90
2023-05-19T03:40:33.352Z,8.00
2023-05-19T03:43:01.096Z,7.90
2023-05-19T03:45:28.398Z,7.90
2023-05-19T03:47:55.997Z,7.90
2023-05-19T03:50:22.902Z,7.90
2023-05-19T03:52:49.683Z,7.90
2023-05-19T03:55:16.600Z,7.90
2023-05-19T03:57:44.346Z,7.90
2023-05-19T04:00:12.340Z,7.80
2023-05-19T04:02:39.355Z,7.80
2023-05-19T04:05:07.181Z,7.80
2023-05-19T04:07:34.228Z,7.90
2023-05-19T04:10:01.060Z,7.90
2023-05-19T04:12:28.164Z,7.90
2023-05-19T04:14:54.910Z,8.00
2023-05-19T04:17:23.658Z,8.20
2023-05-19T04:19:51.004Z,8.50
2023-05-19T04:22:17.730Z,8.90
2023-05-19T04:24:44.466Z,8.70
2023-05-19T04:27:12.416Z,8.50
2023-05-19T04:29:40.723Z,8.80
2023-05-19T04:32:08.180Z,9.30
2023-05-19T04:34:35.490Z,9.60
2023-05-19T04:37:02.856Z,9.60
2023-05-19T04:39:29.562Z,9.40
2023-05-19T04:41:56.641Z,9.30
2023-05-19T04:44:23.668Z,9.40
2023-05-19T04:46:54.325Z,9.60
2023-05-19T04:49:21.346Z,10.00
2023-05-19T04:51:50.399Z,10.50
2023-05-19T04:54:18.940Z,10.70
2023-05-19T04:56:45.698Z,11.40
2023-05-19T04:59:12.510Z,11.60
2023-05-19T05:01:40.555Z,11.00
2023-05-19T05:04:07.538Z,11.30
2023-05-19T05:06:34.404Z,11.30
2023-05-19T05:09:01.216Z,11.50
2023-05-19T05:11:28.280Z,12.00
2023-05-19T05:13:58.120Z,12.30
2023-05-19T05:16:26.139Z,12.60
2023-05-19T05:18:53.261Z,11.90
2023-05-19T05:21:20.497Z,11.90
2023-05-19T05:23:47.586Z,12.50
2023-05-19T05:26:19.575Z,12.60
2023-05-19T05:28:46.337Z,12.40
2023-05-19T05:31:13.091Z,12.70
2023-05-19T05:33:40.287Z,12.30
2023-05-19T05:36:07.537Z,12.90
2023-05-19T05:38:34.434Z,13.70
2023-05-19T05:41:03.084Z,13.60
2023-05-19T05:43:30.477Z,13.80
2023-05-19T05:45:57.665Z,13.40
2023-05-19T05:48:24.790Z,14.20
2023-05-19T05:50:52.743Z,14.50
2023-05-19T05:53:21.439Z,15.50
2023-05-19T05:55:48.670Z,15.90
2023-05-19T05:58:17.021Z,16.00
2023-05-19T06:00:43.989Z,16.40
2023-05-19T06:03:11.587Z,16.30
2023-05-19T06:05:38.787Z,14.60
2023-05-19T06:08:05.999Z,15.50
2023-05-19T06:10:33.515Z,16.40
2023-05-19T06:13:01.638Z,16.90
2023-05-19T06:15:28.710Z,16.90
2023-05-19T06:17:56.044Z,16.50
2023-05-19T06:20:23.053Z,16.30
2023-05-19T06:22:49.833Z,16.50
2023-05-19T06:25:16.852Z,17.00
2023-05-19T06:27:43.619Z,16.80
2023-05-19T06:30:10.987Z,18.00
2023-05-19T06:32:37.909Z,16.80
2023-05-19T06:35:05.100Z,17.80
2023-05-19T06:37:31.818Z,18.90
2023-05-19T06:39:58.569Z,17.20
2023-05-19T06:42:25.496Z,16.20
2023-05-19T06:44:53.052Z,16.60
2023-05-19T06:47:20.111Z,18.80
2023-05-19T06:49:50.591Z,17.00
2023-05-19T06:52:17.898Z,17.00
2023-05-19T06:54:44.704Z,17.60
2023-05-19T06:57:11.449Z,18.50
2023-05-19T06:59:40.851Z,17.30
2023-05-19T07:02:08.330Z,18.10
2023-05-19T07:04:35.853Z,18.40
2023-05-19T07:07:03.041Z,18.20
2023-05-19T07:09:29.937Z,18.20
2023-05-19T07:11:56.853Z,19.40
2023-05-19T07:14:23.664Z,19.40
2023-05-19T07:16:50.481Z,20.60
2023-05-19T07:19:19.892Z,19.20
2023-05-19T07:21:47.706Z,19.60
2023-05-19T07:24:14.430Z,20.10
2023-05-19T07:26:42.584Z,18.30
2023-05-19T07:29:09.571Z,18.80
2023-05-19T07:31:36.439Z,18.60
2023-05-19T07:34:03.262Z,19.60
2023-05-19T07:36:30.060Z,19.80
2023-05-19T07:38:57.039Z,19.70
2023-05-19T07:41:23.936Z,18.50
2023-05-19T07:43:50.837Z,19.70
2023-05-19T07:46:17.873Z,19.20
2023-05-19T07:48:44.829Z,19.10
2023-05-19T07:51:12.825Z,19.40
2023-05-19T07:53:40.717Z,19.40
2023-05-19T07:56:07.548Z,18.80
2023-05-19T07:58:34.424Z,19.20
2023-05-19T08:01:01.236Z,19.30
2023-05-19T08:03:28.153Z,18.60
2023-05-19T08:05:55.477Z,19.10
2023-05-19T08:08:22.577Z,18.70
2023-05-19T08:10:50.458Z,19.20
2023-05-19T08:13:17.299Z,19.60
2023-05-19T08:15:44.127Z,19.90
2023-05-19T08:18:11.052Z,19.50
2023-05-19T08:20:37.965Z,19.60
2023-05-19T08:23:05.333Z,19.70
2023-05-19T08:25:32.200Z,18.20
2023-05-19T08:27:58.911Z,19.00
2023-05-19T08:30:25.692Z,18.60
2023-05-19T08:32:52.477Z,18.80
2023-05-19T08:35:19.420Z,19.00
2023-05-19T08:37:46.238Z,17.90
2023-05-19T08:40:17.558Z,18.00
2023-05-19T08:42:46.601Z,17.40
2023-05-19T08:45:14.399Z,18.10
2023-05-19T08:47:47.220Z,18.60
2023-05-19T08:50:20.008Z,18.20
2023-05-19T08:53:18.263Z,18.10
2023-05-19T08:56:14.050Z,18.40
2023-05-19T08:58:43.808Z,17.80
2023-05-19T09:01:17.670Z,18.60
2023-05-19T09:03:46.380Z,18.10
2023-05-19T09:06:13.400Z,17.30
2023-05-19T09:08:41.606Z,17.90
2023-05-19T09:11:11.958Z,16.90
2023-05-19T09:13:39.131Z,16.90
2023-05-19T09:16:06.601Z,18.20
2023-05-19T09:18:33.542Z,17.80
2023-05-19T09:21:02.619Z,18.10
2023-05-19T09:23:32.583Z,17.90
2023-05-19T09:26:09.182Z,18.10
2023-05-19T09:28:37.734Z,18.40
2023-05-19T09:31:11.516Z,18.90
2023-05-19T09:33:40.636Z,17.90
2023-05-19T09:36:08.701Z,18.10
2023-05-19T09:38:36.439Z,18.20
2023-05-19T09:41:06.021Z,18.60
2023-05-19T09:43:34.266Z,18.90
2023-05-19T09:46:04.787Z,19.00
2023-05-19T09:48:32.132Z,19.10
2023-05-19T09:51:01.254Z,18.50
2023-05-19T09:53:30.285Z,18.40
2023-05-19T09:55:57.931Z,18.10
2023-05-19T09:58:25.150Z,18.60
2023-05-19T10:00:54.609Z,18.20
2023-05-19T10:03:23.846Z,18.70
2023-05-19T10:05:51.197Z,19.10
2023-05-19T10:08:19.865Z,18.80
2023-05-19T10:10:47.672Z,18.00
2023-05-19T10:13:16.470Z,19.10
2023-05-19T10:15:54.291Z,18.40
2023-05-19T10:18:26.884Z,18.40
2023-05-19T10:20:54.954Z,19.00
2023-05-19T10:23:23.581Z,19.10
2023-05-19T10:25:55.445Z,18.80
2023-05-19T10:28:25.821Z,18.90
2023-05-19T10:30:54.600Z,18.90
2023-05-19T10:33:29.484Z,19.30
2023-05-19T10:36:09.144Z,19.10
2023-05-19T10:39:00.653Z,18.90
2023-05-19T10:41:40.049Z,18.80
2023-05-19T10:44:21.607Z,19.20
2023-05-19T10:46:49.069Z,19.10
2023-05-19T10:49:22.755Z,19.10
2023-05-19T10:51:51.609Z,19.30
2023-05-19T10:54:39.160Z,19.20
2023-05-19T10:57:07.075Z,19.40
2023-05-19T10:59:37.797Z,19.50
2023-05-19T11:02:06.876Z,19.20
2023-05-19T11:04:51.313Z,19.00
2023-05-19T11:07:20.490Z,19.00
2023-05-19T11:09:53.636Z,19.00
2023-05-19T11:12:24.572Z,18.70
2023-05-19T11:14:55.450Z,18.60
2023-05-19T11:17:24.601Z,18.60
2023-05-19T11:19:55.844Z,19.10
2023-05-19T11:22:25.844Z,19.40
2023-05-19T11:24:55.238Z,19.10
2023-05-19T11:27:32.721Z,19.00
2023-05-19T11:30:14.560Z,18.80
2023-05-19T11:32:42.842Z,19.30
2023-05-19T11:35:10.409Z,18.70
2023-05-19T11:37:37.348Z,19.00
2023-05-19T11:40:07.121Z,19.10
2023-05-19T11:42:34.928Z,19.00
2023-05-19T11:45:02.225Z,19.10
2023-05-19T11:47:33.859Z,19.40
2023-05-19T11:50:06.697Z,19.00
2023-05-19T11:52:33.485Z,19.10
2023-05-19T11:55:01.575Z,19.50
2023-05-19T11:57:28.382Z,19.20
2023-05-19T11:59:56.776Z,19.00
2023-05-19T12:02:25.453Z,19.10
2023-05-19T12:04:52.545Z,19.10
2023-05-19T12:07:23.057Z,19.10
2023-05-19T12:09:53.002Z,19.30
2023-05-19T12:12:21.769Z,19.50
2023-05-19T12:14:50.446Z,18.60
2023-05-19T12:17:23.871Z,19.10
2023-05-19T12:19:51.303Z,19.70
2023-05-19T12:22:18.335Z,19.20
2023-05-19T12:24:46.333Z,19.00
2023-05-19T12:27:22.425Z,18.90
2023-05-19T12:29:54.469Z,19.00
2023-05-19T12:32:25.674Z,19.40
2023-05-19T12:34:56.421Z,19.70
2023-05-19T12:37:26.583Z,18.80
2023-05-19T12:39:53.512Z,18.60
2023-05-19T12:42:20.713Z,19.10
2023-05-19T12:44:51.094Z,19.10
2023-05-19T12:47:19.992Z,18.80
2023-05-19T12:50:01.478Z,18.40
2023-05-19T12:52:29.676Z,19.20
2023-05-19T12:55:05.202Z,19.30
2023-05-19T12:57:35.513Z,19.60
2023-05-19T13:00:14.060Z,19.60
2023-05-19T13:02:59.854Z,19.60
2023-05-19T13:05:28.898Z,19.50
2023-05-19T13:07:57.519Z,19.40
2023-05-19T13:10:27.005Z,19.00
2023-05-19T13:12:57.739Z,18.70
2023-05-19T13:15:34.483Z,19.40
2023-05-19T13:18:03.614Z,18.90
2023-05-19T13:20:30.912Z,19.30
2023-05-19T13:22:57.778Z,19.50
2023-05-19T13:25:27.269Z,19.60
2023-05-19T13:27:54.568Z,19.90
2023-05-19T13:30:22.021Z,20.10
2023-05-19T13:32:48.966Z,20.30
2023-05-19T13:35:16.010Z,19.80
2023-05-19T13:37:43.271Z,19.70
2023-05-19T13:40:10.914Z,19.90
2023-05-19T13:42:40.890Z,19.60
2023-05-19T13:45:08.234Z,19.60
2023-05-19T13:47:35.164Z,19.20
2023-05-19T13:50:05.431Z,19.80
2023-05-19T13:52:32.479Z,19.30
2023-05-19T13:54:59.209Z,19.40
2023-05-19T13:57:27.011Z,19.40
2023-05-19T14:00:01.994Z,19.70
2023-05-19T14:02:30.647Z,19.20
2023-05-19T14:04:57.870Z,19.90
2023-05-19T14:07:25.745Z,19.90
2023-05-19T14:09:53.022Z,19.80
2023-05-19T14:12:23.257Z,19.70
2023-05-19T14:14:52.194Z,19.80
2023-05-19T14:17:18.911Z,19.70
2023-05-19T14:19:45.702Z,19.40
2023-05-19T14:22:13.365Z,19.80
2023-05-19T14:24:40.211Z,19.90
2023-05-19T14:27:07.023Z,19.40
2023-05-19T14:29:34.188Z,19.80
2023-05-19T14:32:02.791Z,19.30
2023-05-19T14:34:29.734Z,19.40
2023-05-19T14:36:56.676Z,19.40
2023-05-19T14:39:23.424Z,19.60
2023-05-19T14:41:51.946Z,19.90
2023-05-19T14:44:18.832Z,19.70
2023-05-19T14:46:45.619Z,19.70
2023-05-19T14:49:15.598Z,19.40
2023-05-19T14:51:42.357Z,19.30
2023-05-19T14:54:09.199Z,19.60
2023-05-19T14:56:36.024Z,19.90
2023-05-19T14:59:04.370Z,19.60
2023-05-19T15:01:31.163Z,19.60
2023-05-19T15:03:58.055Z,19.70
2023-05-19T15:06:24.855Z,19.50
2023-05-19T15:08:51.636Z,19.50
2023-05-19T15:11:18.418Z,19.50
2023-05-19T15:13:45.159Z,19.80
2023-05-19T15:18:41.680Z,19.70
2023-05-19T15:21:08.513Z,19.70
2023-05-19T15:23:35.431Z,19.60
2023-05-19T15:26:03.539Z,19.50
2023-05-19T15:28:30.384Z,19.40
2023-05-19T15:30:57.181Z,19.60
2023-05-19T15:33:24.008Z,19.60
2023-05-19T15:35:52.123Z,19.60
2023-05-19T15:38:19.625Z,19.70
2023-05-19T15:40:46.879Z,19.60
2023-05-19T15:43:14.156Z,19.70
2023-05-19T15:45:41.287Z,19.60
2023-05-19T15:48:08.451Z,19.60
2023-05-19T15:50:36.163Z,19.50
2023-05-19T15:53:03.393Z,19.40
2023-05-19T15:55:30.457Z,19.50
2023-05-19T15:57:57.343Z,19.50
2023-05-19T16:00:26.687Z,19.60
2023-05-19T16:02:53.602Z,19.60
2023-05-19T16:05:20.497Z,19.20
2023-05-19T16:07:47.281Z,19.30
2023-05-19T16:10:14.118Z,19.30
2023-05-19T16:12:41.094Z,19.50
2023-05-19T16:15:08.383Z,19.50
2023-05-19T16:17:35.363Z,19.20
2023-05-19T16:20:02.289Z,19.30
2023-05-19T16:22:30.511Z,19.50
2023-05-19T16:24:59.793Z,19.50
2023-05-19T16:27:26.609Z,19.60
2023-05-19T16:29:53.493Z,19.50
2023-05-19T16:32:20.198Z,19.50
2023-05-19T16:34:49.564Z,19.40
2023-05-19T16:37:16.289Z,19.40
2023-05-19T16:39:44.001Z,19.40
2023-05-19T16:42:10.829Z,19.50
2023-05-19T16:44:37.572Z,19.50
2023-05-19T16:47:04.578Z,19.50
2023-05-19T16:49:31.437Z,19.50
2023-05-19T16:51:58.226Z,19.60
2023-05-19T16:54:25.789Z,19.60
2023-05-19T16:56:53.574Z,19.50
2023-05-19T16:59:20.504Z,19.50
2023-05-19T17:01:47.860Z,19.60
2023-05-19T17:04:15.276Z,19.50
2023-05-19T17:06:42.159Z,19.40
2023-05-19T17:09:08.977Z,19.30
2023-05-19T17:11:35.936Z,19.20
2023-05-19T17:14:07.611Z,19.20
2023-05-19T17:16:35.759Z,19.30
2023-05-19T17:19:03.746Z,19.20
2023-05-19T17:21:31.404Z,19.20
2023-05-19T17:23:58.207Z,19.30
2023-05-19T17:26:24.880Z,19.00
2023-05-19T17:28:52.163Z,19.30
2023-05-19T17:31:18.873Z,19.50
2023-05-19T17:33:46.204Z,19.40
2023-05-19T17:36:14.496Z,19.30
2023-05-19T17:38:41.877Z,19.10
2023-05-19T17:41:13.953Z,19.40
2023-05-19T17:43:41.492Z,19.10
2023-05-19T17:46:08.904Z,19.20
2023-05-19T17:48:42.177Z,19.20
2023-05-19T17:51:09.055Z,19.30
2023-05-19T17:53:36.659Z,19.30
2023-05-19T17:56:06.514Z,19.10
2023-05-19T17:58:33.552Z,19.30
2023-05-19T18:01:00.544Z,19.00
2023-05-19T18:03:27.577Z,18.70
2023-05-19T18:05:54.799Z,19.00
2023-05-19T18:08:23.905Z,18.90
2023-05-19T18:10:52.568Z,18.60
2023-05-19T18:13:19.316Z,18.60
2023-05-19T18:15:46.234Z,18.60
2023-05-19T18:18:12.960Z,18.70
2023-05-19T18:20:41.169Z,18.60
2023-05-19T18:23:07.932Z,18.80
2023-05-19T18:25:35.656Z,18.50
2023-05-19T18:28:02.573Z,18.60
2023-05-19T18:30:30.573Z,18.60
2023-05-19T18:32:57.481Z,18.30
2023-05-19T18:35:24.260Z,18.40
2023-05-19T18:37:54.297Z,18.30
2023-05-19T18:40:21.001Z,18.70
2023-05-19T18:42:47.923Z,18.30
2023-05-19T18:45:14.827Z,18.20
2023-05-19T18:47:41.659Z,18.40
2023-05-19T18:50:09.328Z,18.20
2023-05-19T18:52:36.117Z,18.20
2023-05-19T18:55:03.686Z,18.20
2023-05-19T18:57:31.638Z,18.10
2023-05-19T18:59:58.584Z,17.90
2023-05-19T19:02:25.300Z,18.10
2023-05-19T19:04:52.161Z,18.10
2023-05-19T19:07:19.056Z,18.10
2023-05-19T19:09:46.046Z,18.10
2023-05-19T19:12:12.854Z,18.00
2023-05-19T19:14:39.753Z,18.00
2023-05-19T19:17:06.576Z,17.90
2023-05-19T19:19:33.404Z,18.00
2023-05-19T19:22:00.311Z,18.00
2023-05-19T19:24:28.486Z,18.20
2023-05-19T19:26:55.312Z,18.40
2023-05-19T19:29:22.316Z,18.50
2023-05-19T19:31:49.230Z,18.40
2023-05-19T19:34:19.807Z,18.50
2023-05-19T19:36:47.856Z,18.40
2023-05-19T19:39:14.773Z,18.20
2023-05-19T19:41:41.552Z,18.40
2023-05-19T19:44:08.341Z,17.90
2023-05-19T19:46:35.698Z,18.10
2023-05-19T19:49:02.562Z,18.30
2023-05-19T19:51:29.500Z,18.00
2023-05-19T19:53:56.508Z,17.90
2023-05-19T19:56:24.693Z,17.90
2023-05-19T19:58:51.713Z,17.70
2023-05-19T20:01:20.625Z,17.60
2023-05-19T20:03:48.115Z,17.20
2023-05-19T20:06:15.062Z,17.20
2023-05-19T20:08:42.869Z,17.50
2023-05-19T20:11:09.614Z,17.20
2023-05-19T20:13:36.486Z,17.00
2023-05-19T20:16:03.410Z,16.80
2023-05-19T20:18:30.367Z,16.10
2023-05-19T20:20:57.223Z,17.10
2023-05-19T20:23:24.078Z,17.00
2023-05-19T20:26:10.333Z,16.80
2023-05-19T20:28:37.610Z,16.50
2023-05-19T20:31:05.060Z,16.70
2023-05-19T20:33:32.359Z,16.80
2023-05-19T20:35:59.188Z,16.80
2023-05-19T20:38:26.008Z,16.80
2023-05-19T20:40:54.373Z,17.10
2023-05-19T20:43:21.266Z,17.30
2023-05-19T20:45:48.315Z,17.20
2023-05-19T20:48:16.358Z,16.80
2023-05-19T20:50:43.203Z,16.60
2023-05-19T20:53:10.232Z,16.40
2023-05-19T20:55:38.510Z,16.40
2023-05-19T20:58:05.526Z,16.60
2023-05-19T21:00:32.702Z,16.40
2023-05-19T21:02:59.809Z,16.40
2023-05-19T21:05:26.610Z,16.20
2023-05-19T21:07:54.441Z,16.00
2023-05-19T21:10:21.428Z,16.00
2023-05-19T21:12:48.362Z,16.20
2023-05-19T21:15:15.099Z,15.70
2023-05-19T21:17:41.973Z,15.90
2023-05-19T21:20:09.289Z,15.60
2023-05-19T21:22:36.157Z,16.20
2023-05-19T21:25:03.720Z,15.60
2023-05-19T21:27:32.836Z,15.00
2023-05-19T21:30:00.064Z,15.40
2023-05-19T21:32:27.787Z,15.30
2023-05-19T21:34:54.611Z,14.90
2023-05-19T21:37:22.425Z,15.20
2023-05-19T21:39:49.233Z,15.00
2023-05-19T21:42:16.039Z,14.60
2023-05-19T21:44:42.742Z,14.80
2023-05-19T21:47:09.663Z,15.40
2023-05-19T21:49:38.235Z,15.40
2023-05-19T21:52:05.904Z,15.10
2023-05-19T21:54:32.611Z,15.20
2023-05-19T21:56:59.473Z,14.70
2023-05-19T21:59:26.625Z,14.90
2023-05-19T22:01:54.665Z,15.10
2023-05-19T22:04:22.739Z,15.20
2023-05-19T22:06:49.601Z,14.80
2023-05-19T22:09:16.626Z,15.10
2023-05-19T22:11:43.466Z,15.20
2023-05-19T22:14:10.374Z,14.90
2023-05-19T22:16:37.155Z,14.70
2023-05-19T22:19:04.012Z,14.70
2023-05-19T22:21:31.975Z,14.80
2023-05-19T22:23:58.736Z,14.30
2023-05-19T22:26:26.007Z,15.00
2023-05-19T22:28:53.442Z,14.80
2023-05-19T22:31:20.130Z,14.60
2023-05-19T22:33:46.892Z,14.80
2023-05-19T22:36:15.966Z,14.80
2023-05-19T22:38:42.718Z,14.70
2023-05-19T22:41:09.548Z,14.50
2023-05-19T22:43:36.594Z,14.80
2023-05-19T22:46:03.510Z,14.90
2023-05-19T22:48:30.268Z,14.50
2023-05-19T22:50:57.100Z,14.60
2023-05-19T22:53:23.883Z,14.70
2023-05-19T22:55:50.887Z,14.50
2023-05-19T22:58:17.637Z,14.40
2023-05-19T23:00:44.334Z,14.50
2023-05-19T23:03:11.473Z,14.60
2023-05-19T23:05:38.297Z,14.30
2023-05-19T23:08:07.506Z,14.00
2023-05-19T23:10:34.273Z,13.70
2023-05-19T23:13:01.101Z,14.20
2023-05-19T23:15:27.789Z,13.90
2023-05-19T23:17:54.684Z,14.00
2023-05-19T23:20:21.487Z,13.70
2023-05-19T23:22:49.244Z,14.00
2023-05-19T23:25:16.319Z,14.20
2023-05-19T23:27:43.202Z,13.90
2023-05-19T23:30:10.050Z,13.80
2023-05-19T23:32:36.993Z,13.80
2023-05-19T23:35:15.407Z,14.00
2023-05-19T23:37:42.322Z,13.70
2023-05-19T23:40:09.939Z,13.70
2023-05-19T23:42:36.824Z,14.10
2023-05-19T23:45:04.385Z,13.90
2023-05-19T23:47:31.433Z,14.00
2023-05-19T23:49:58.152Z,13.70
2023-05-19T23:52:24.988Z,13.80
2023-05-19T23:54:51.768Z,13.90
2023-05-19T23:57:18.527Z,13.70
2023-05-19T23:59:45.296Z,14.10
